Time;durP1;ratioP1;P1;durP2;ratioP2;P2;SDS_P1;SDS_P2;PMS_P1;PMS_P2;Temp;Humidity;BMP_temperature;BMP_pressure;BME280_temperature;BME280_humidity;BME280_pressure;Samples;Min_cycle;Max_cycle;Signal;HPM_P1;HPM_P2
2022/01/02 00:00:33;;;;;;;13.30;9.63;;;10.20;99.90;;;;;;5055428;28;20851;-60
2022/01/02 00:03:04;;;;;;;12.33;10.03;;;10.20;99.90;;;;;;5055687;28;20884;-59
2022/01/02 00:05:33;;;;;;;16.97;10.10;;;10.20;99.90;;;;;;5055383;28;20436;-60
2022/01/02 00:08:03;;;;;;;11.02;8.95;;;10.20;99.90;;;;;;5055537;28;20498;-59
2022/01/02 00:10:32;;;;;;;15.30;10.63;;;10.20;99.90;;;;;;5055871;28;20198;-59
2022/01/02 00:13:01;;;;;;;13.00;9.43;;;10.20;99.90;;;;;;5055227;28;20221;-60
2022/01/02 00:15:29;;;;;;;12.93;10.35;;;10.20;99.90;;;;;;5055242;28;20795;-60
2022/01/02 00:17:57;;;;;;;13.77;10.63;;;10.20;99.90;;;;;;5055128;28;20688;-60
2022/01/02 00:20:32;;;;;;;12.63;9.30;;;10.20;99.90;;;;;;5055499;28;20202;-61
2022/01/02 00:23:00;;;;;;;11.55;10.07;;;10.20;99.90;;;;;;5054971;28;20899;-62
2022/01/02 00:25:33;;;;;;;10.88;8.80;;;10.20;99.90;;;;;;5055068;28;20284;-60
2022/01/02 00:28:01;;;;;;;12.80;9.00;;;10.20;99.90;;;;;;5055185;28;20223;-60
2022/01/02 00:30:28;;;;;;;13.25;8.57;;;10.10;99.90;;;;;;5054858;28;20448;-60
2022/01/02 00:32:57;;;;;;;12.23;8.60;;;10.10;99.90;;;;;;5054923;28;20229;-61
2022/01/02 00:35:26;;;;;;;13.52;9.18;;;10.10;99.90;;;;;;5055291;28;20202;-60
2022/01/02 00:37:53;;;;;;;11.48;8.57;;;10.00;99.90;;;;;;5055191;28;20205;-59
2022/01/02 00:40:20;;;;;;;11.77;9.00;;;10.00;99.90;;;;;;5055028;28;20202;-60
2022/01/02 00:42:53;;;;;;;11.38;9.88;;;10.00;99.90;;;;;;5054690;28;20208;-61
2022/01/02 00:45:26;;;;;;;12.65;9.63;;;10.00;99.90;;;;;;5054699;28;20642;-59
2022/01/02 00:47:59;;;;;;;11.52;8.60;;;10.00;99.90;;;;;;5054594;28;20642;-58
2022/01/02 00:50:32;;;;;;;11.00;8.95;;;10.00;99.90;;;;;;5054916;28;20190;-59
2022/01/02 00:53:02;;;;;;;9.90;8.10;;;10.00;99.90;;;;;;5054916;28;20214;-60
2022/01/02 00:55:34;;;;;;;11.00;8.43;;;10.10;99.90;;;;;;5054665;28;20186;-59
2022/01/02 00:58:05;;;;;;;9.17;7.40;;;10.10;99.90;;;;;;5055223;28;20185;-60
2022/01/02 01:00:33;;;;;;;10.50;7.90;;;10.20;99.90;;;;;;5054639;28;20433;-61
2022/01/02 01:03:07;;;;;;;10.30;7.82;;;10.20;99.90;;;;;;5054227;28;20228;-59
2022/01/02 01:05:39;;;;;;;10.40;7.03;;;10.30;99.90;;;;;;5054516;28;20193;-60
2022/01/02 01:08:08;;;;;;;7.93;6.50;;;10.30;99.90;;;;;;5054214;28;20186;-59
2022/01/02 01:10:37;;;;;;;7.70;6.90;;;10.30;99.90;;;;;;5054617;28;20212;-61
2022/01/02 01:13:08;;;;;;;7.30;5.82;;;10.40;99.90;;;;;;5054230;28;20542;-59
2022/01/02 01:15:36;;;;;;;8.90;6.60;;;10.40;99.90;;;;;;5054149;28;20588;-58
2022/01/02 01:18:05;;;;;;;6.77;6.07;;;10.50;99.90;;;;;;5054097;28;20502;-59
2022/01/02 01:20:38;;;;;;;7.75;5.45;;;10.60;99.90;;;;;;5053561;28;20448;-59
2022/01/02 01:23:06;;;;;;;7.97;5.93;;;10.60;99.90;;;;;;5053803;28;20709;-60
2022/01/02 01:25:33;;;;;;;6.13;5.37;;;10.70;99.90;;;;;;5053590;28;20970;-59
2022/01/02 01:28:01;;;;;;;7.43;5.70;;;10.70;99.90;;;;;;5053567;28;20459;-60
2022/01/02 01:30:29;;;;;;;6.70;5.40;;;10.70;99.90;;;;;;5053725;28;20916;-58
2022/01/02 01:32:57;;;;;;;10.43;5.40;;;10.80;99.90;;;;;;5053836;28;20488;-59
2022/01/02 01:35:24;;;;;;;6.70;5.27;;;10.80;99.90;;;;;;5053942;28;20444;-60
2022/01/02 01:37:53;;;;;;;8.10;5.60;;;10.80;99.90;;;;;;5055101;28;20518;-60
2022/01/02 01:40:20;;;;;;;7.27;5.77;;;10.90;99.90;;;;;;5054851;28;20440;-59
2022/01/02 01:42:57;;;;;;;7.47;5.80;;;10.90;99.90;;;;;;5054989;28;20451;-60
2022/01/02 01:45:31;;;;;;;7.53;5.03;;;10.90;99.90;;;;;;5054765;28;20436;-59
2022/01/02 01:48:00;;;;;;;5.97;5.37;;;10.90;99.90;;;;;;5055238;28;20430;-60
2022/01/02 01:50:29;;;;;;;7.43;5.23;;;10.90;99.90;;;;;;5055786;28;20448;-61
2022/01/02 01:52:58;;;;;;;7.87;5.40;;;10.90;99.90;;;;;;5055771;28;20476;-60
2022/01/02 01:55:25;;;;;;;7.23;5.80;;;10.90;99.90;;;;;;5055030;28;20864;-60
2022/01/02 01:57:54;;;;;;;5.90;5.10;;;10.90;99.90;;;;;;5054093;28;20452;-59
2022/01/02 02:00:23;;;;;;;6.90;5.00;;;10.90;99.90;;;;;;5055165;28;20467;-58
2022/01/02 02:02:50;;;;;;;5.43;4.10;;;10.90;99.90;;;;;;5054863;28;20448;-60
2022/01/02 02:05:18;;;;;;;5.73;4.90;;;10.90;99.90;;;;;;5054424;28;20444;-59
2022/01/02 02:07:45;;;;;;;6.90;4.90;;;10.90;99.90;;;;;;5054536;28;20456;-59
2022/01/02 02:10:18;;;;;;;5.47;4.50;;;10.90;99.90;;;;;;5054074;28;20448;-60
2022/01/02 02:12:47;;;;;;;6.50;4.33;;;11.00;99.90;;;;;;5053895;28;20488;-60
2022/01/02 02:15:17;;;;;;;5.73;4.30;;;11.00;99.90;;;;;;5053632;28;20445;-60
2022/01/02 02:17:46;;;;;;;7.40;5.47;;;11.00;99.90;;;;;;5053984;28;20443;-59
2022/01/02 02:20:17;;;;;;;7.10;5.17;;;11.10;99.90;;;;;;5053732;28;20447;-59
2022/01/02 02:22:47;;;;;;;5.63;4.27;;;11.10;99.90;;;;;;5054139;28;20445;-60
2022/01/02 02:25:15;;;;;;;4.70;4.27;;;11.10;99.90;;;;;;5053752;28;20943;-59
2022/01/02 02:27:50;;;;;;;5.30;3.80;;;11.10;99.90;;;;;;5053360;28;20432;-59
2022/01/02 02:30:17;;;;;;;6.20;3.90;;;11.20;99.90;;;;;;5053416;28;20459;-60
2022/01/02 02:32:44;;;;;;;7.10;3.87;;;11.20;99.90;;;;;;5052945;28;20530;-60
2022/01/02 02:35:11;;;;;;;5.33;4.77;;;11.20;99.90;;;;;;5053073;28;20444;-61
2022/01/02 02:37:43;;;;;;;7.13;3.97;;;11.30;99.90;;;;;;5053240;28;20453;-60
2022/01/02 02:40:11;;;;;;;5.80;4.50;;;11.30;99.90;;;;;;5053026;28;20432;-59
2022/01/02 02:42:46;;;;;;;4.90;4.03;;;11.30;99.90;;;;;;5052948;28;20817;-61
2022/01/02 02:51:03;;;;;;;7.03;4.53;;;11.40;99.90;;;;;;5052734;28;20450;-60
2022/01/02 02:53:32;;;;;;;5.10;4.20;;;11.40;99.90;;;;;;5052661;28;20512;-60
2022/01/02 02:56:00;;;;;;;6.43;3.93;;;11.40;99.90;;;;;;5052809;28;20448;-60
2022/01/02 02:58:41;;;;;;;6.13;3.50;;;11.40;99.90;;;;;;5052767;28;20502;-60
2022/01/02 03:01:10;;;;;;;4.00;3.20;;;11.40;99.90;;;;;;5053184;28;20436;-61
2022/01/02 03:03:37;;;;;;;5.10;4.13;;;11.50;99.90;;;;;;5052969;28;20601;-61
2022/01/02 03:06:04;;;;;;;9.90;4.77;;;11.50;99.90;;;;;;5052640;28;20954;-60
2022/01/02 03:08:34;;;;;;;4.30;3.70;;;11.50;99.90;;;;;;5053007;28;20448;-58
2022/01/02 03:11:01;;;;;;;5.93;3.97;;;11.60;99.90;;;;;;5055359;28;20440;-59
2022/01/02 03:13:28;;;;;;;4.37;3.50;;;11.60;99.90;;;;;;5056168;28;20492;-61
2022/01/02 03:15:55;;;;;;;7.00;4.70;;;11.60;99.90;;;;;;5056437;28;20440;-59
2022/01/02 03:18:22;;;;;;;5.97;4.10;;;11.70;99.90;;;;;;5056261;28;20811;-59
2022/01/02 03:20:49;;;;;;;6.60;4.60;;;11.70;99.90;;;;;;5056198;28;20448;-59
2022/01/02 03:23:17;;;;;;;5.23;4.40;;;11.70;99.90;;;;;;5056161;28;20467;-60
2022/01/02 03:25:45;;;;;;;5.63;4.33;;;11.70;99.90;;;;;;5056388;28;20444;-60
2022/01/02 03:28:12;;;;;;;5.03;4.43;;;11.60;99.90;;;;;;5055952;28;20448;-60
2022/01/02 03:30:41;;;;;;;4.93;4.40;;;11.50;99.90;;;;;;5055909;28;20474;-59
2022/01/02 03:33:08;;;;;;;5.73;4.37;;;11.50;99.90;;;;;;5056231;28;20487;-59
2022/01/02 03:35:35;;;;;;;6.10;5.10;;;11.40;99.90;;;;;;5056178;28;20448;-59
2022/01/02 03:38:03;;;;;;;7.30;4.60;;;11.40;99.90;;;;;;5056111;28;20448;-59
2022/01/02 03:40:30;;;;;;;7.00;5.10;;;11.40;99.90;;;;;;5055662;28;20443;-58
2022/01/02 03:42:58;;;;;;;6.20;4.50;;;11.40;99.90;;;;;;5056235;28;20444;-60
2022/01/02 03:45:26;;;;;;;7.30;4.70;;;11.30;99.90;;;;;;5055643;28;20509;-57
2022/01/02 03:47:53;;;;;;;5.70;4.70;;;11.30;99.90;;;;;;5055800;28;20440;-61
2022/01/02 03:50:20;;;;;;;7.80;5.43;;;11.40;99.90;;;;;;5055653;28;20451;-59
2022/01/02 03:52:47;;;;;;;7.87;4.73;;;11.30;99.90;;;;;;5055856;28;20491;-60
2022/01/02 03:55:14;;;;;;;6.10;4.60;;;11.40;99.90;;;;;;5055795;28;20448;-60
2022/01/02 03:57:42;;;;;;;5.77;4.83;;;11.30;99.90;;;;;;5055477;28;20448;-59
2022/01/02 04:00:13;;;;;;;7.03;4.63;;;11.40;99.90;;;;;;5055577;28;20841;-59
2022/01/02 04:02:40;;;;;;;6.00;4.63;;;11.30;99.90;;;;;;5055264;28;20828;-60
2022/01/02 04:05:09;;;;;;;6.53;4.83;;;11.40;99.90;;;;;;5055193;28;20816;-60
2022/01/02 04:09:08;;;;;;;7.17;4.60;;;11.40;99.90;;;;;;5091228;27;20720;-61
2022/01/02 04:11:36;;;;;;;6.57;4.30;;;11.40;99.90;;;;;;5090767;28;20492;-61
2022/01/02 04:14:03;;;;;;;6.40;4.40;;;11.40;99.90;;;;;;5090579;28;20473;-60
2022/01/02 04:16:30;;;;;;;6.20;4.90;;;11.40;99.90;;;;;;5090682;28;20821;-62
2022/01/02 04:18:58;;;;;;;4.63;4.10;;;11.40;99.90;;;;;;5090631;28;20447;-60
2022/01/02 04:21:25;;;;;;;5.60;4.33;;;11.40;99.90;;;;;;5093894;22;20488;-56
2022/01/02 04:23:52;;;;;;;6.17;5.00;;;11.30;99.90;;;;;;5050300;28;20444;-56
2022/01/02 04:26:21;;;;;;;7.07;5.10;;;11.30;99.90;;;;;;5050614;28;20863;-57
2022/01/02 04:28:48;;;;;;;8.03;4.40;;;11.30;99.90;;;;;;5050885;28;20491;-57
2022/01/02 04:31:15;;;;;;;6.10;4.43;;;11.30;99.90;;;;;;5050329;28;20484;-56
2022/01/02 04:33:42;;;;;;;7.00;4.60;;;11.40;99.90;;;;;;5050446;28;20448;-57
2022/01/02 04:36:09;;;;;;;8.83;5.37;;;11.40;99.90;;;;;;5050029;28;20455;-57
2022/01/02 04:38:37;;;;;;;6.33;4.50;;;11.40;99.90;;;;;;5050032;28;20452;-57
2022/01/02 04:41:04;;;;;;;7.73;5.47;;;11.40;99.90;;;;;;5049987;28;20469;-58
2022/01/02 04:43:33;;;;;;;7.23;5.33;;;11.40;99.90;;;;;;5049822;28;20963;-57
2022/01/02 04:46:00;;;;;;;6.10;4.30;;;11.40;99.90;;;;;;5050271;28;20444;-56
2022/01/02 04:48:27;;;;;;;6.77;4.80;;;11.40;99.90;;;;;;5050199;28;20483;-56
2022/01/02 04:50:54;;;;;;;6.80;4.57;;;11.40;99.90;;;;;;5049919;28;20901;-56
2022/01/02 04:53:22;;;;;;;5.87;4.50;;;11.40;99.90;;;;;;5049898;28;20456;-56
2022/01/02 04:55:49;;;;;;;5.23;4.30;;;11.40;99.90;;;;;;5049796;28;20441;-56
2022/01/02 04:58:16;;;;;;;6.47;4.83;;;11.40;99.90;;;;;;5050035;28;20444;-56
2022/01/02 05:00:45;;;;;;;6.47;4.67;;;11.40;99.90;;;;;;5049265;28;20940;-56
2022/01/02 05:03:12;;;;;;;4.87;4.30;;;11.40;99.90;;;;;;5049981;28;20441;-55
2022/01/02 05:05:39;;;;;;;5.30;4.60;;;11.40;99.90;;;;;;5049737;28;20788;-56
2022/01/02 05:08:06;;;;;;;8.43;4.43;;;11.40;99.90;;;;;;5049587;28;20468;-55
2022/01/02 05:10:33;;;;;;;8.03;4.53;;;11.30;99.90;;;;;;5049760;28;20445;-56
2022/01/02 05:13:00;;;;;;;10.47;5.13;;;11.30;99.90;;;;;;5049302;28;20848;-56
2022/01/02 05:15:27;;;;;;;8.70;4.40;;;11.30;99.90;;;;;;5049285;28;20452;-56
2022/01/02 05:17:56;;;;;;;9.27;5.50;;;11.30;99.90;;;;;;5049617;28;20455;-56
2022/01/02 05:20:23;;;;;;;6.27;4.90;;;11.20;99.90;;;;;;5036484;28;20445;-56
2022/01/02 05:22:50;;;;;;;5.90;4.07;;;11.20;99.90;;;;;;5036462;28;20480;-56
2022/01/02 05:25:17;;;;;;;6.07;4.83;;;11.20;99.90;;;;;;5036343;28;20452;-57
2022/01/02 05:27:44;;;;;;;5.60;4.43;;;11.20;99.90;;;;;;5035658;28;20476;-56
2022/01/02 05:30:12;;;;;;;6.73;4.13;;;11.10;99.90;;;;;;5036060;28;20451;-56
2022/01/02 05:32:39;;;;;;;8.50;5.07;;;11.10;99.90;;;;;;5035748;28;20467;-55
2022/01/02 05:35:08;;;;;;;7.60;5.40;;;11.10;99.90;;;;;;5036060;28;20444;-57
2022/01/02 05:37:35;;;;;;;6.83;4.63;;;11.10;99.90;;;;;;5035652;28;20445;-56
2022/01/02 05:40:02;;;;;;;7.13;5.30;;;11.10;99.90;;;;;;5035837;28;20441;-56
2022/01/02 05:42:29;;;;;;;5.63;4.10;;;11.10;99.90;;;;;;5035465;28;20464;-56
2022/01/02 05:44:56;;;;;;;8.57;4.67;;;11.10;99.90;;;;;;5035748;28;20453;-56
2022/01/02 05:47:23;;;;;;;7.90;4.17;;;11.10;99.90;;;;;;5035327;28;20984;-56
2022/01/02 05:49:50;;;;;;;7.77;4.57;;;11.10;99.90;;;;;;5035688;28;20441;-56
2022/01/02 05:52:19;;;;;;;6.53;4.60;;;11.10;99.90;;;;;;5035219;28;20482;-56
2022/01/02 05:54:46;;;;;;;9.60;4.60;;;11.10;99.90;;;;;;5035187;28;20933;-57
2022/01/02 05:57:13;;;;;;;6.23;4.17;;;11.10;99.90;;;;;;5035330;28;20449;-56
2022/01/02 05:59:40;;;;;;;5.80;4.43;;;11.10;99.90;;;;;;5035611;28;20456;-56
2022/01/02 06:02:07;;;;;;;6.00;3.80;;;11.20;99.90;;;;;;5035357;28;20473;-56
2022/01/02 06:04:34;;;;;;;5.80;4.30;;;11.20;99.90;;;;;;5035449;28;20449;-56
2022/01/02 06:07:02;;;;;;;10.93;4.70;;;11.20;99.90;;;;;;5035398;28;20445;-56
2022/01/02 06:09:30;;;;;;;6.43;4.13;;;11.20;99.90;;;;;;5035246;28;20481;-56
2022/01/02 06:11:57;;;;;;;6.93;4.70;;;11.20;99.90;;;;;;5036922;28;20461;-56
2022/01/02 06:14:24;;;;;;;8.23;5.10;;;11.20;99.90;;;;;;5035073;28;20816;-56
2022/01/02 06:16:51;;;;;;;5.90;4.60;;;11.10;99.90;;;;;;5035314;28;20452;-56
2022/01/02 06:19:18;;;;;;;6.53;4.70;;;11.10;99.90;;;;;;5036062;28;20444;-56
2022/01/02 06:21:45;;;;;;;7.03;4.50;;;11.10;99.90;;;;;;5035352;28;21019;-56
2022/01/02 06:24:12;;;;;;;12.73;4.30;;;11.10;99.90;;;;;;5035063;28;20452;-56
2022/01/02 06:26:41;;;;;;;9.37;4.40;;;11.10;99.90;;;;;;5034918;28;20456;-56
2022/01/02 06:29:08;;;;;;;6.73;3.73;;;11.10;99.90;;;;;;5034750;28;20484;-55
2022/01/02 06:31:35;;;;;;;6.30;4.07;;;11.10;99.90;;;;;;5034353;28;20465;-56
2022/01/02 06:34:02;;;;;;;5.27;3.60;;;11.10;99.90;;;;;;5034977;28;20449;-56
2022/01/02 06:36:29;;;;;;;7.60;5.17;;;11.10;99.90;;;;;;5034977;28;20825;-56
2022/01/02 06:38:56;;;;;;;12.53;4.70;;;11.10;99.90;;;;;;5034691;28;20440;-56
2022/01/02 06:41:23;;;;;;;6.30;4.50;;;11.10;99.90;;;;;;5034490;28;20461;-56
2022/01/02 06:43:52;;;;;;;5.53;4.23;;;11.00;99.90;;;;;;5034570;28;20528;-57
2022/01/02 06:46:19;;;;;;;9.20;4.77;;;11.00;99.90;;;;;;5034587;28;20449;-56
2022/01/02 06:48:46;;;;;;;8.00;4.47;;;11.00;99.90;;;;;;5034316;28;20553;-56
2022/01/02 06:51:13;;;;;;;8.63;4.73;;;11.00;99.90;;;;;;5034107;28;20999;-56
2022/01/02 06:53:40;;;;;;;8.83;3.90;;;11.00;99.90;;;;;;5034702;28;20445;-56
2022/01/02 06:56:07;;;;;;;6.40;4.43;;;11.00;99.90;;;;;;5034097;28;20445;-57
2022/01/02 06:58:38;;;;;;;7.13;3.53;;;11.00;99.90;;;;;;5034993;28;20444;-56
2022/01/02 07:01:07;;;;;;;5.30;3.97;;;11.00;99.90;;;;;;5034488;28;20461;-56
2022/01/02 07:03:34;;;;;;;5.50;4.27;;;11.10;99.90;;;;;;5033968;28;20445;-57
2022/01/02 07:06:01;;;;;;;8.13;4.57;;;11.10;99.90;;;;;;5033994;28;20980;-56
2022/01/02 07:08:29;;;;;;;7.80;4.03;;;11.10;99.90;;;;;;5033913;28;21011;-57
2022/01/02 07:10:56;;;;;;;5.13;3.50;;;11.10;99.90;;;;;;5034267;28;20830;-57
2022/01/02 07:13:23;;;;;;;8.37;4.30;;;11.10;99.90;;;;;;5034510;28;20452;-56
2022/01/02 07:15:51;;;;;;;7.70;4.40;;;11.10;99.90;;;;;;5034655;28;20445;-56
2022/01/02 07:18:19;;;;;;;9.30;3.90;;;11.20;99.90;;;;;;5034109;28;20807;-57
2022/01/02 07:20:46;;;;;;;8.83;3.97;;;11.20;99.90;;;;;;5033913;28;20445;-58
2022/01/02 07:23:13;;;;;;;7.53;4.17;;;11.20;99.90;;;;;;5033973;28;20452;-57
2022/01/02 07:25:40;;;;;;;6.50;4.67;;;11.20;99.90;;;;;;5033965;28;20453;-57
2022/01/02 07:28:07;;;;;;;8.50;3.90;;;11.30;99.90;;;;;;5033950;28;20887;-57
2022/01/02 07:30:34;;;;;;;5.40;3.37;;;11.30;99.90;;;;;;5033688;28;20437;-58
2022/01/02 07:33:02;;;;;;;5.93;3.33;;;11.30;99.90;;;;;;5033672;28;20445;-57
2022/01/02 07:35:31;;;;;;;11.53;4.60;;;11.40;99.90;;;;;;5033475;28;20949;-57
2022/01/02 07:37:58;;;;;;;5.10;3.07;;;11.40;99.90;;;;;;5033922;28;20453;-57
2022/01/02 07:40:26;;;;;;;6.47;3.50;;;11.40;99.90;;;;;;5033832;28;20452;-57
2022/01/02 07:42:53;;;;;;;6.47;3.03;;;11.50;99.90;;;;;;5033392;28;20481;-57
2022/01/02 07:45:21;;;;;;;8.17;3.47;;;11.50;99.90;;;;;;5033827;28;20448;-57
2022/01/02 07:47:49;;;;;;;6.73;3.30;;;11.50;99.90;;;;;;5033392;28;20815;-57
2022/01/02 07:50:18;;;;;;;6.90;3.30;;;11.50;99.90;;;;;;5033584;28;20861;-58
2022/01/02 07:52:47;;;;;;;11.23;3.87;;;11.50;99.90;;;;;;5033177;28;20563;-55
2022/01/02 07:55:14;;;;;;;6.60;3.67;;;11.50;99.90;;;;;;5032933;28;20460;-57
2022/01/02 07:57:41;;;;;;;8.27;3.37;;;11.50;99.90;;;;;;5033636;28;20456;-58
2022/01/02 08:00:09;;;;;;;11.03;4.67;;;11.50;99.90;;;;;;5033497;28;20454;-57
2022/01/02 08:02:36;;;;;;;5.83;3.07;;;11.50;99.90;;;;;;5033369;28;20469;-58
2022/01/02 08:05:04;;;;;;;10.50;3.53;;;11.50;99.90;;;;;;5033159;28;20445;-57
2022/01/02 08:07:31;;;;;;;9.03;4.47;;;11.50;99.90;;;;;;5033026;28;20449;-57
2022/01/02 08:10:00;;;;;;;6.40;3.50;;;11.50;99.90;;;;;;5032930;28;20481;-56
2022/01/02 08:12:27;;;;;;;6.30;3.87;;;11.60;99.90;;;;;;5033502;28;20472;-57
2022/01/02 08:14:54;;;;;;;9.00;4.07;;;11.60;99.90;;;;;;5033114;28;20452;-56
2022/01/02 08:17:21;;;;;;;11.03;4.17;;;11.60;99.90;;;;;;5033048;28;20445;-58
2022/01/02 08:19:48;;;;;;;9.90;4.00;;;11.60;99.90;;;;;;5033620;28;20448;-58
2022/01/02 08:22:15;;;;;;;7.97;3.90;;;11.60;99.90;;;;;;5033917;28;20495;-57
2022/01/02 08:24:42;;;;;;;5.33;3.93;;;11.70;99.90;;;;;;5033173;28;20955;-57
2022/01/02 08:27:10;;;;;;;4.40;3.23;;;11.70;99.90;;;;;;5033078;28;20449;-57
2022/01/02 08:29:37;;;;;;;6.90;3.57;;;11.70;99.90;;;;;;5033176;28;20851;-56
2022/01/02 08:32:05;;;;;;;5.10;3.27;;;11.80;99.90;;;;;;5033000;28;20469;-57
2022/01/02 08:34:32;;;;;;;6.30;3.83;;;11.80;99.90;;;;;;5032950;28;20944;-57
2022/01/02 08:36:59;;;;;;;8.37;4.33;;;11.80;99.90;;;;;;5032876;28;20952;-55
2022/01/02 08:39:26;;;;;;;9.07;3.83;;;11.90;99.90;;;;;;5033336;28;20813;-57
2022/01/02 08:41:53;;;;;;;7.00;4.20;;;11.90;99.90;;;;;;5032886;28;20461;-57
2022/01/02 08:44:22;;;;;;;5.80;3.60;;;11.90;99.90;;;;;;5033088;28;20476;-55
2022/01/02 08:46:50;;;;;;;5.87;4.03;;;11.90;99.90;;;;;;5032656;28;20933;-57
2022/01/02 08:49:17;;;;;;;8.77;3.50;;;11.90;99.90;;;;;;5032617;28;20579;-57
2022/01/02 08:51:44;;;;;;;13.53;3.80;;;11.90;99.90;;;;;;5032604;28;20469;-58
2022/01/02 08:54:11;;;;;;;10.20;3.60;;;12.00;99.90;;;;;;5033885;28;20440;-58
2022/01/02 08:56:39;;;;;;;5.43;3.23;;;11.90;99.90;;;;;;5036397;28;20452;-57
2022/01/02 08:59:06;;;;;;;8.27;3.70;;;12.00;99.90;;;;;;5036272;28;20445;-57
2022/01/02 09:01:35;;;;;;;11.10;3.33;;;12.00;99.90;;;;;;5036400;28;20469;-58
2022/01/02 09:04:02;;;;;;;5.57;3.00;;;12.00;99.90;;;;;;5036146;28;20453;-58
2022/01/02 09:06:29;;;;;;;7.97;3.87;;;12.00;99.90;;;;;;5036377;28;20448;-58
2022/01/02 09:08:56;;;;;;;8.13;3.73;;;12.00;99.90;;;;;;5035959;28;21019;-57
2022/01/02 09:11:23;;;;;;;8.30;4.47;;;12.10;99.90;;;;;;5035910;28;20472;-57
2022/01/02 09:13:50;;;;;;;4.87;3.30;;;12.10;99.90;;;;;;5035925;28;20452;-57
2022/01/02 09:16:17;;;;;;;4.97;3.40;;;12.10;99.90;;;;;;5035827;28;20447;-57
2022/01/02 09:18:46;;;;;;;8.87;3.97;;;12.10;99.90;;;;;;5035779;28;20445;-58
2022/01/02 09:21:13;;;;;;;7.90;4.00;;;12.10;99.90;;;;;;5035769;28;20485;-57
2022/01/02 09:23:40;;;;;;;6.87;4.73;;;12.10;99.90;;;;;;5036042;28;20472;-57
2022/01/02 09:26:07;;;;;;;6.80;4.50;;;12.10;99.90;;;;;;5035686;28;20456;-56
2022/01/02 09:28:34;;;;;;;8.77;3.87;;;12.10;99.90;;;;;;5035556;28;20932;-58
2022/01/02 09:31:01;;;;;;;11.13;4.50;;;12.10;99.90;;;;;;5036860;28;20465;-57
2022/01/02 09:33:28;;;;;;;9.30;5.90;;;12.10;99.90;;;;;;5035884;28;20831;-57
2022/01/02 09:35:57;;;;;;;6.63;4.83;;;12.00;99.90;;;;;;5035867;28;20941;-58
2022/01/02 09:38:24;;;;;;;6.90;4.80;;;12.00;99.90;;;;;;5035735;28;20934;-58
2022/01/02 09:40:51;;;;;;;8.37;5.10;;;12.00;99.90;;;;;;5035896;28;20445;-59
2022/01/02 09:43:19;;;;;;;10.10;4.83;;;12.00;99.90;;;;;;5035694;28;20541;-57
2022/01/02 09:45:47;;;;;;;7.60;4.90;;;12.10;99.90;;;;;;5035413;28;20794;-58
2022/01/02 09:48:14;;;;;;;9.00;5.47;;;12.00;99.90;;;;;;5035674;28;20448;-58
2022/01/02 09:50:41;;;;;;;6.93;5.37;;;12.10;99.90;;;;;;5035171;28;20485;-58
2022/01/02 09:53:10;;;;;;;4.70;4.20;;;12.10;99.90;;;;;;5035246;28;20971;-58
2022/01/02 09:55:37;;;;;;;7.33;4.60;;;12.10;99.90;;;;;;5035570;28;20448;-58
2022/01/02 09:58:10;;;;;;;6.37;4.30;;;12.00;99.90;;;;;;5035480;28;20469;-58
2022/01/02 10:00:38;;;;;;;5.80;4.30;;;12.10;99.90;;;;;;5035286;28;20568;-58
2022/01/02 10:03:07;;;;;;;8.67;5.70;;;12.10;99.90;;;;;;5035394;28;20445;-57
2022/01/02 10:05:50;;;;;;;6.23;5.40;;;12.10;99.90;;;;;;5035025;28;20445;-57
2022/01/02 10:08:24;;;;;;;8.33;5.53;;;12.10;99.90;;;;;;5034988;28;20432;-57
2022/01/02 10:11:00;;;;;;;8.20;5.40;;;12.10;99.90;;;;;;5035418;28;20461;-58
2022/01/02 10:13:42;;;;;;;9.83;6.13;;;12.10;99.90;;;;;;5035226;28;20448;-57
2022/01/02 10:16:23;;;;;;;7.97;4.90;;;12.20;99.90;;;;;;5034812;28;20430;-57
2022/01/02 10:18:52;;;;;;;7.60;5.90;;;12.10;99.90;;;;;;5034998;28;20441;-57
2022/01/02 10:24:15;;;;;;;9.93;5.20;;;12.20;99.90;;;;;;5034315;28;20480;-60
2022/01/02 10:27:05;;;;;;;8.70;6.37;;;12.10;99.90;;;;;;5035065;28;20436;-61
2022/01/02 10:29:48;;;;;;;7.50;5.60;;;12.10;99.90;;;;;;5035462;28;20806;-60
2022/01/02 10:32:39;;;;;;;8.30;6.30;;;12.10;99.90;;;;;;5035164;28;20483;-60
2022/01/02 10:35:17;;;;;;;9.57;6.63;;;12.10;99.90;;;;;;5024993;28;20468;-61
2022/01/02 10:37:49;;;;;;;9.30;5.60;;;12.10;99.90;;;;;;5034675;28;20759;-60
2022/01/02 10:40:30;;;;;;;9.27;6.30;;;12.10;99.90;;;;;;5034185;28;20436;-61
2022/01/02 10:42:58;;;;;;;9.77;5.93;;;12.10;99.90;;;;;;5034550;28;20461;-61
2022/01/02 10:45:32;;;;;;;9.90;6.80;;;12.10;99.90;;;;;;5034519;28;20452;-60
2022/01/02 10:48:00;;;;;;;8.73;6.77;;;12.10;99.90;;;;;;5034507;28;20444;-60
2022/01/02 10:50:27;;;;;;;9.67;6.43;;;12.10;99.90;;;;;;5034644;28;20476;-60
2022/01/02 10:52:54;;;;;;;10.50;5.97;;;12.10;99.90;;;;;;5034289;28;20460;-60
2022/01/02 10:55:23;;;;;;;10.40;6.50;;;12.10;99.90;;;;;;5034361;28;20957;-60
2022/01/02 10:57:54;;;;;;;9.93;6.63;;;12.10;99.90;;;;;;5034346;28;20480;-60
2022/01/02 11:00:23;;;;;;;8.50;5.90;;;12.10;99.90;;;;;;5033998;28;20433;-61
2022/01/02 11:02:50;;;;;;;8.60;5.40;;;12.10;99.90;;;;;;5033762;28;20461;-60
2022/01/02 11:05:19;;;;;;;7.13;4.80;;;12.20;99.90;;;;;;5034494;28;20448;-61
2022/01/02 11:07:47;;;;;;;7.90;5.30;;;12.20;99.90;;;;;;5034025;28;20468;-60
2022/01/02 11:10:17;;;;;;;7.80;5.03;;;12.30;99.90;;;;;;5033557;28;21011;-59
2022/01/02 11:12:45;;;;;;;7.13;4.60;;;12.40;99.90;;;;;;5034262;28;20484;-59
2022/01/02 11:15:17;;;;;;;7.63;3.83;;;12.50;99.90;;;;;;5033974;28;20456;-60
2022/01/02 11:17:45;;;;;;;7.60;3.97;;;12.60;99.90;;;;;;5033331;28;20437;-59
2022/01/02 11:20:14;;;;;;;8.33;3.77;;;12.70;99.90;;;;;;5033621;28;20445;-59
2022/01/02 11:22:45;;;;;;;4.00;3.20;;;12.70;99.90;;;;;;5033372;28;20853;-59
2022/01/02 11:25:19;;;;;;;4.10;3.20;;;12.80;99.90;;;;;;5033388;28;20898;-60
2022/01/02 11:27:53;;;;;;;7.83;3.83;;;12.90;99.90;;;;;;5033875;28;20433;-60
2022/01/02 11:30:38;;;;;;;8.83;3.40;;;12.90;99.90;;;;;;5033459;28;20472;-60
2022/01/02 11:33:06;;;;;;;4.80;3.00;;;13.00;99.90;;;;;;5032732;28;20476;-60
2022/01/02 11:35:35;;;;;;;7.83;3.70;;;13.00;99.90;;;;;;5034368;28;20444;-59
2022/01/02 11:38:04;;;;;;;7.20;3.37;;;13.10;99.90;;;;;;5034749;28;20453;-60
2022/01/02 11:40:52;;;;;;;7.83;3.70;;;13.20;99.90;;;;;;5034783;28;20980;-60
2022/01/02 11:44:00;;;;;;;6.00;3.50;;;13.20;99.90;;;;;;5033873;28;20523;-60
2022/01/02 11:46:37;;;;;;;7.07;3.70;;;13.30;99.90;;;;;;5030700;28;20457;-60
2022/01/02 11:49:27;;;;;;;11.90;4.10;;;13.30;99.90;;;;;;5033179;28;20436;-61
2022/01/02 11:52:02;;;;;;;6.03;2.93;;;13.40;99.90;;;;;;5030279;28;20476;-60
2022/01/02 11:54:56;;;;;;;5.20;3.80;;;13.40;99.90;;;;;;5033433;28;20417;-61
2022/01/02 11:57:54;;;;;;;5.03;3.50;;;13.40;99.90;;;;;;5023975;28;20573;-60
2022/01/02 12:00:40;;;;;;;6.40;3.67;;;13.40;99.90;;;;;;5032940;28;20433;-58
2022/01/02 12:03:51;;;;;;;6.50;3.20;;;13.30;99.90;;;;;;5032897;28;20515;-60
2022/01/02 12:06:34;;;;;;;7.00;3.60;;;13.30;99.90;;;;;;5034112;28;20433;-60
2022/01/02 12:09:04;;;;;;;4.70;3.63;;;13.00;99.90;;;;;;5034308;28;20429;-61
2022/01/02 12:11:45;;;;;;;6.37;3.40;;;12.60;99.90;;;;;;5034756;28;20487;-61
2022/01/02 12:14:19;;;;;;;5.90;3.67;;;12.30;99.90;;;;;;5034546;28;20800;-61
2022/01/02 12:16:57;;;;;;;4.07;3.67;;;12.10;99.90;;;;;;5033332;28;20852;-59
2022/01/02 12:19:26;;;;;;;7.80;3.40;;;11.90;99.90;;;;;;5033512;28;20429;-61
2022/01/02 12:22:10;;;;;;;5.00;3.70;;;11.80;99.90;;;;;;5032854;28;20557;-61
2022/01/02 12:24:37;;;;;;;4.20;3.70;;;11.70;99.90;;;;;;5032560;28;20837;-59
2022/01/02 12:27:09;;;;;;;4.67;3.00;;;11.70;99.90;;;;;;5033125;28;20449;-60
2022/01/02 12:29:37;;;;;;;4.57;3.30;;;11.80;99.90;;;;;;5034788;28;20472;-61
2022/01/02 12:32:05;;;;;;;6.03;3.20;;;11.90;99.90;;;;;;5036683;28;20976;-61
2022/01/02 12:34:33;;;;;;;7.30;3.57;;;11.90;99.90;;;;;;5036964;28;20448;-61
2022/01/02 12:37:01;;;;;;;3.83;3.27;;;12.00;99.90;;;;;;5037046;28;20506;-60
2022/01/02 12:39:29;;;;;;;6.43;3.47;;;12.00;99.90;;;;;;5038227;28;20456;-60
2022/01/02 12:42:01;;;;;;;7.83;3.13;;;12.10;99.90;;;;;;5039710;28;20480;-60
2022/01/02 12:44:30;;;;;;;4.00;3.23;;;12.10;99.90;;;;;;5038013;28;20928;-59
2022/01/02 12:46:59;;;;;;;4.47;3.60;;;12.10;99.90;;;;;;5039451;28;20499;-60
2022/01/02 12:49:28;;;;;;;3.87;3.10;;;12.20;99.90;;;;;;5038455;28;20936;-60
2022/01/02 12:51:58;;;;;;;5.20;3.37;;;12.30;99.90;;;;;;5038276;28;20472;-59
2022/01/02 12:54:28;;;;;;;8.27;3.33;;;12.40;99.90;;;;;;5038784;28;20448;-60
2022/01/02 12:56:57;;;;;;;7.30;3.60;;;12.40;99.90;;;;;;5038980;28;21002;-60
2022/01/02 12:59:26;;;;;;;5.50;3.33;;;12.50;99.90;;;;;;5037792;28;20459;-60
2022/01/02 13:01:55;;;;;;;4.40;2.93;;;12.60;99.90;;;;;;5038181;28;20464;-60
2022/01/02 13:04:24;;;;;;;5.70;3.60;;;12.60;99.90;;;;;;5039070;28;20953;-60
2022/01/02 13:06:52;;;;;;;5.40;3.37;;;12.60;99.90;;;;;;5042887;28;20441;-61